createdAt,value
2019-05-02T00:02:30.165Z,101696.80
2019-05-02T00:05:00.253Z,101702.19
2019-05-02T00:07:30.278Z,101695.28
2019-05-02T00:10:00.604Z,101695.59
2019-05-02T00:12:31.707Z,101693.12
2019-05-02T00:15:03.611Z,101692.94
2019-05-02T00:17:34.659Z,101686.91
2019-05-02T00:20:06.428Z,101676.59
2019-05-02T00:22:36.465Z,101676.59
2019-05-02T00:25:06.540Z,101673.89
2019-05-02T00:27:37.756Z,101672.13
2019-05-02T00:30:08.921Z,101664.02
2019-05-02T00:32:39.127Z,101666.55
2019-05-02T00:35:09.383Z,101662.39
2019-05-02T00:37:39.471Z,101664.80
2019-05-02T00:40:09.660Z,101664.80
2019-05-02T00:42:39.677Z,101654.34
2019-05-02T00:45:09.801Z,101652.11
2019-05-02T00:47:47.718Z,101651.09
2019-05-02T00:50:17.281Z,101651.09
2019-05-02T00:52:47.313Z,101660.38
2019-05-02T00:55:17.389Z,101655.61
2019-05-02T00:57:50.962Z,101647.91
2019-05-02T01:00:19.812Z,101647.77
2019-05-02T01:02:54.973Z,101642.73
2019-05-02T01:05:25.037Z,101643.57
2019-05-02T01:07:56.037Z,101639.31
2019-05-02T01:10:26.811Z,101641.32
2019-05-02T01:12:56.894Z,101635.31
2019-05-02T01:15:26.903Z,101626.31
2019-05-02T01:18:00.995Z,101632.36
2019-05-02T01:20:29.352Z,101628.84
2019-05-02T01:22:59.420Z,101630.89
2019-05-02T01:25:29.456Z,101633.48
2019-05-02T01:28:17.904Z,101627.62
2019-05-02T01:31:05.224Z,101624.11
2019-05-02T01:33:41.786Z,101627.66
2019-05-02T01:36:30.945Z,101627.66
2019-05-02T01:39:02.912Z,101626.23
2019-05-02T01:41:34.073Z,101627.17
2019-05-02T01:44:04.192Z,101616.42
2019-05-02T01:46:34.213Z,101628.27
2019-05-02T01:49:04.466Z,101627.62
2019-05-02T01:51:36.810Z,101619.63
2019-05-02T01:54:09.924Z,101612.70
2019-05-02T01:56:38.025Z,101609.81
2019-05-02T01:59:08.181Z,101611.14
2019-05-02T02:01:38.223Z,101596.93
2019-05-02T02:04:08.249Z,101599.70
2019-05-02T02:06:38.806Z,101590.45
2019-05-02T02:09:10.063Z,101590.45
2019-05-02T02:11:40.088Z,101590.58
2019-05-02T02:14:12.785Z,101591.14
2019-05-02T02:16:41.891Z,101591.14
2019-05-02T02:19:34.682Z,101587.66
2019-05-02T02:22:26.236Z,101580.48
2019-05-02T02:25:13.601Z,101580.48
2019-05-02T02:27:43.678Z,101585.09
2019-05-02T02:30:17.568Z,101584.94
2019-05-02T02:32:45.468Z,101586.34
2019-05-02T02:35:15.507Z,101584.16
2019-05-02T02:37:52.755Z,101579.10
2019-05-02T02:40:17.284Z,101577.94
2019-05-02T02:42:47.374Z,101577.77
2019-05-02T02:45:40.607Z,101570.08
2019-05-02T02:48:10.649Z,101573.97
2019-05-02T02:50:43.053Z,101572.58
2019-05-02T02:53:18.113Z,101563.27
2019-05-02T02:55:44.178Z,101571.31
2019-05-02T02:58:14.248Z,101567.06
2019-05-02T03:00:47.635Z,101565.89
2019-05-02T03:03:20.840Z,101561.58
2019-05-02T03:05:47.781Z,101566.47
2019-05-02T03:08:17.838Z,101554.50
2019-05-02T03:10:47.883Z,101558.55
2019-05-02T03:13:52.441Z,101570.67
2019-05-02T03:16:19.457Z,101557.66
2019-05-02T03:18:49.525Z,101563.42
2019-05-02T03:21:22.129Z,101559.22
2019-05-02T03:24:01.664Z,101558.56
2019-05-02T03:26:25.015Z,101559.27
2019-05-02T03:28:58.482Z,101553.19
2019-05-02T03:31:30.353Z,101550.23
2019-05-02T03:34:00.522Z,101541.97
2019-05-02T03:36:36.081Z,101548.68
2019-05-02T03:39:13.503Z,101545.04
2019-05-02T03:41:34.744Z,101543.93
2019-05-02T03:44:11.001Z,101549.17
2019-05-02T03:46:36.512Z,101549.09
2019-05-02T03:49:09.416Z,101549.09
2019-05-02T03:51:38.289Z,101557.24
2019-05-02T03:54:10.350Z,101557.24
2019-05-02T03:56:44.632Z,101557.30
2019-05-02T03:59:11.898Z,101550.64
2019-05-02T04:01:43.140Z,101547.92
2019-05-02T04:04:20.851Z,101549.88
2019-05-02T04:06:45.929Z,101553.88
2019-05-02T04:09:39.139Z,101544.72
2019-05-02T04:12:11.822Z,101542.86
2019-05-02T04:14:39.484Z,101554.30
2019-05-02T04:17:11.112Z,101551.37
2019-05-02T04:19:41.316Z,101548.42
2019-05-02T04:22:12.333Z,101552.06
2019-05-02T04:24:48.030Z,101545.54
2019-05-02T04:27:15.803Z,101544.48
2019-05-02T04:29:46.810Z,101554.52
2019-05-02T04:32:16.839Z,101554.52
2019-05-02T04:34:48.929Z,101553.59
2019-05-02T04:37:18.611Z,101546.02
2019-05-02T04:39:49.334Z,101546.02
2019-05-02T04:42:23.181Z,101557.38
2019-05-02T04:45:11.818Z,101553.73
2019-05-02T04:47:23.899Z,101548.33
2019-05-02T04:49:53.950Z,101546.56
2019-05-02T04:52:24.009Z,101548.00
2019-05-02T04:55:08.119Z,101549.03
2019-05-02T04:57:35.973Z,101544.77
2019-05-02T05:00:06.141Z,101552.48
2019-05-02T05:02:36.580Z,101551.33
2019-05-02T05:05:02.106Z,101547.83
2019-05-02T05:07:41.115Z,101546.72
2019-05-02T05:10:04.050Z,101541.17
2019-05-02T05:12:38.057Z,101551.83
2019-05-02T05:15:07.846Z,101537.12
2019-05-02T05:17:38.039Z,101540.98
2019-05-02T05:20:14.228Z,101550.09
2019-05-02T05:22:44.251Z,101554.14
2019-05-02T05:25:21.225Z,101562.08
2019-05-02T05:27:52.642Z,101555.95
2019-05-02T05:30:20.831Z,101553.81
2019-05-02T05:32:50.899Z,101562.56
2019-05-02T05:35:21.888Z,101564.16
2019-05-02T05:37:53.170Z,101565.14
2019-05-02T05:40:28.174Z,101555.91
2019-05-02T05:42:57.371Z,101561.58
2019-05-02T05:45:27.850Z,101569.28
2019-05-02T05:48:01.071Z,101565.50
2019-05-02T05:50:32.139Z,101569.72
2019-05-02T05:53:02.121Z,101564.74
2019-05-02T05:55:33.126Z,101568.25
2019-05-02T05:58:12.326Z,101566.52
2019-05-02T06:00:34.905Z,101565.91
2019-05-02T06:03:11.538Z,101567.73
2019-05-02T06:05:40.445Z,101561.20
2019-05-02T06:08:08.449Z,101574.99
2019-05-02T06:10:39.067Z,101580.16
2019-05-02T06:13:10.818Z,101566.34
2019-05-02T06:15:41.945Z,101565.80
2019-05-02T06:18:12.005Z,101571.45
2019-05-02T06:20:42.028Z,101573.70
2019-05-02T06:23:12.088Z,101577.57
2019-05-02T06:25:42.907Z,101578.67
2019-05-02T06:28:13.163Z,101575.92
2019-05-02T06:30:43.176Z,101572.19
2019-05-02T06:33:13.229Z,101572.19
2019-05-02T06:35:43.252Z,101572.45
2019-05-02T06:38:13.293Z,101580.18
2019-05-02T06:40:44.608Z,101587.82
2019-05-02T06:43:15.067Z,101579.47
2019-05-02T06:45:45.107Z,101579.47
2019-05-02T06:48:17.722Z,101582.14
2019-05-02T06:50:46.893Z,101581.86
2019-05-02T06:53:16.925Z,101578.05
2019-05-02T06:55:46.956Z,101575.13
2019-05-02T06:58:17.019Z,101576.19
2019-05-02T07:00:57.297Z,101568.54
2019-05-02T07:03:19.926Z,101572.89
2019-05-02T07:05:50.029Z,101577.63
2019-05-02T07:08:20.159Z,101586.73
2019-05-02T07:10:50.189Z,101575.13
2019-05-02T07:13:20.246Z,101574.36
2019-05-02T07:16:37.755Z,101572.09
2019-05-02T07:19:05.319Z,101579.50
2019-05-02T07:21:35.357Z,101578.29
2019-05-02T07:24:05.409Z,101578.29
2019-05-02T07:26:35.469Z,101587.41
2019-05-02T07:29:05.505Z,101593.32
2019-05-02T07:31:35.549Z,101593.32
2019-05-02T07:34:07.963Z,101589.16
2019-05-02T07:36:38.366Z,101592.87
2019-05-02T07:39:09.142Z,101586.22
2019-05-02T07:41:39.198Z,101592.09
2019-05-02T07:44:09.229Z,101584.41
2019-05-02T07:46:51.142Z,101589.03
2019-05-02T07:49:11.088Z,101587.34
2019-05-02T07:51:41.138Z,101584.55
2019-05-02T07:54:11.188Z,101578.11
2019-05-02T07:56:41.313Z,101576.98
2019-05-02T07:59:11.376Z,101577.66
2019-05-02T08:01:44.841Z,101584.09
2019-05-02T08:04:13.167Z,101582.66
2019-05-02T08:06:44.637Z,101579.02
2019-05-02T08:09:14.942Z,101580.73
2019-05-02T08:11:44.977Z,101588.06
2019-05-02T08:14:15.013Z,101594.50
2019-05-02T08:16:45.040Z,101592.85
2019-05-02T08:19:15.063Z,101588.72
2019-05-02T08:21:46.072Z,101590.27
2019-05-02T08:24:16.101Z,101592.48
2019-05-02T08:26:58.246Z,101588.34
2019-05-02T08:29:28.900Z,101596.56
2019-05-02T08:31:58.999Z,101594.87
2019-05-02T08:34:33.123Z,101590.42
2019-05-02T08:37:04.803Z,101599.03
2019-05-02T08:39:35.348Z,101599.03
2019-05-02T08:42:05.496Z,101605.52
2019-05-02T08:44:35.588Z,101611.14
2019-05-02T08:47:18.145Z,101615.61
2019-05-02T08:49:37.366Z,101608.44
2019-05-02T08:52:07.417Z,101602.38
2019-05-02T08:54:38.422Z,101608.00
2019-05-02T08:57:08.480Z,101610.38
2019-05-02T08:59:40.842Z,101607.80
2019-05-02T09:02:10.267Z,101610.02
2019-05-02T09:04:40.283Z,101607.58
2019-05-02T09:07:10.335Z,101596.64
2019-05-02T09:09:40.353Z,101606.19
2019-05-02T09:12:13.214Z,101603.52
2019-05-02T09:14:42.635Z,101602.67
2019-05-02T09:17:16.392Z,101609.84
2019-05-02T09:19:59.157Z,101606.33
2019-05-02T09:22:17.295Z,101603.31
2019-05-02T09:24:47.425Z,101601.28
2019-05-02T09:27:17.621Z,101600.01
2019-05-02T09:29:47.762Z,101604.02
2019-05-02T09:32:22.801Z,101591.03
2019-05-02T09:34:51.700Z,101598.09
2019-05-02T09:37:22.738Z,101597.65
2019-05-02T09:39:52.870Z,101597.67
2019-05-02T09:42:22.897Z,101600.22
2019-05-02T09:44:56.896Z,101593.97
2019-05-02T09:47:27.493Z,101599.38
2019-05-02T09:50:20.456Z,101595.10
2019-05-02T09:52:48.982Z,101588.41
2019-05-02T09:55:19.038Z,101583.02
2019-05-02T09:57:49.069Z,101585.45
2019-05-02T10:00:41.850Z,101575.02
2019-05-02T10:03:13.189Z,101587.80
2019-05-02T10:05:43.287Z,101587.10
2019-05-02T10:08:14.002Z,101586.80
2019-05-02T10:10:45.996Z,101579.82
2019-05-02T10:13:15.967Z,101586.70
2019-05-02T10:15:46.042Z,101585.61
2019-05-02T10:18:19.782Z,101588.59
2019-05-02T10:20:47.817Z,101587.54
2019-05-02T10:23:19.560Z,101579.08
2019-05-02T10:25:49.592Z,101585.34
2019-05-02T10:28:19.750Z,101582.28
2019-05-02T10:30:52.662Z,101584.03
2019-05-02T10:33:22.577Z,101577.70
2019-05-02T10:35:52.769Z,101584.58
2019-05-02T10:38:22.956Z,101584.16
2019-05-02T10:41:01.302Z,101591.22
2019-05-02T10:43:25.694Z,101586.02
2019-05-02T10:46:07.849Z,101589.05
2019-05-02T10:48:42.100Z,101593.22
2019-05-02T10:51:31.618Z,101583.58
2019-05-02T10:54:04.210Z,101580.20
2019-05-02T10:56:34.578Z,101581.33
2019-05-02T10:59:05.064Z,101583.38
2019-05-02T11:01:54.020Z,101581.49
2019-05-02T11:04:29.024Z,101583.67
2019-05-02T11:06:56.890Z,101582.35
2019-05-02T11:09:27.864Z,101578.39
2019-05-02T11:11:58.460Z,101573.69
2019-05-02T11:14:42.172Z,101572.76
2019-05-02T11:17:36.276Z,101570.94
2019-05-02T11:20:09.196Z,101582.77
2019-05-02T11:22:39.205Z,101577.55
2019-05-02T11:25:11.979Z,101575.84
2019-05-02T11:27:42.124Z,101578.33
2019-05-02T11:30:16.490Z,101571.34
2019-05-02T11:32:43.993Z,101575.29
2019-05-02T11:35:14.049Z,101581.65
2019-05-02T11:37:45.029Z,101570.47
2019-05-02T11:40:15.076Z,101576.18
2019-05-02T11:42:45.105Z,101568.31
2019-05-02T11:45:15.148Z,101578.20
2019-05-02T11:47:45.165Z,101576.67
2019-05-02T11:50:15.219Z,101562.90
2019-05-02T11:52:45.245Z,101564.22
2019-05-02T11:55:19.042Z,101569.50
2019-05-02T11:57:47.013Z,101565.83
2019-05-02T12:00:17.069Z,101560.30
2019-05-02T12:03:06.058Z,101555.17
2019-05-02T12:05:41.878Z,101557.28
2019-05-02T12:08:12.321Z,101555.41
2019-05-02T12:10:42.486Z,101546.01
2019-05-02T12:13:16.028Z,101555.94
2019-05-02T12:15:44.516Z,101543.14
2019-05-02T12:18:14.570Z,101544.15
2019-05-02T12:20:44.600Z,101546.73
2019-05-02T12:23:14.711Z,101544.95
2019-05-02T12:25:44.804Z,101539.95
2019-05-02T12:28:14.857Z,101542.32
2019-05-02T12:30:44.956Z,101535.94
2019-05-02T12:33:15.178Z,101543.97
2019-05-02T12:35:45.208Z,101542.13
2019-05-02T12:38:15.244Z,101540.10
2019-05-02T12:40:45.269Z,101532.97
2019-05-02T12:43:15.337Z,101532.37
2019-05-02T12:45:45.347Z,101537.91
2019-05-02T12:48:15.456Z,101531.72
2019-05-02T12:50:45.465Z,101538.09
2019-05-02T12:53:15.492Z,101540.59
2019-05-02T12:55:45.525Z,101533.40
2019-05-02T12:58:15.543Z,101530.69
2019-05-02T13:00:45.587Z,101533.02
2019-05-02T13:03:36.378Z,101533.02
2019-05-02T13:06:07.475Z,101531.98
2019-05-02T13:08:48.650Z,101537.81
2019-05-02T13:11:25.151Z,101532.63
2019-05-02T13:13:55.204Z,101532.92
2019-05-02T13:16:25.225Z,101536.54
2019-05-02T13:18:57.269Z,101537.31
2019-05-02T13:21:40.064Z,101533.45
2019-05-02T13:24:17.768Z,101534.33
2019-05-02T13:26:53.933Z,101535.32
2019-05-02T13:29:19.542Z,101529.16
2019-05-02T13:31:55.684Z,101536.75
2019-05-02T13:34:41.977Z,101534.72
2019-05-02T13:37:13.605Z,101533.02
2019-05-02T13:40:04.436Z,101523.05
2019-05-02T13:42:34.443Z,101527.91
2019-05-02T13:45:29.497Z,101522.60
2019-05-02T13:47:59.517Z,101525.78
2019-05-02T13:50:31.558Z,101526.82
2019-05-02T13:53:02.651Z,101527.62
2019-05-02T13:55:37.634Z,101529.09
2019-05-02T13:58:07.693Z,101526.55
2019-05-02T14:00:44.949Z,101523.02
2019-05-02T14:03:15.013Z,101519.86
2019-05-02T14:05:50.765Z,101519.53
2019-05-02T14:08:37.483Z,101522.95
2019-05-02T14:11:43.454Z,101523.05
2019-05-02T14:14:13.585Z,101516.61
2019-05-02T14:16:43.625Z,101516.08
2019-05-02T14:19:13.675Z,101513.73
2019-05-02T14:21:43.711Z,101511.56
2019-05-02T14:24:13.809Z,101508.55
2019-05-02T14:26:44.893Z,101500.95
2019-05-02T14:29:16.383Z,101504.48
2019-05-02T14:31:46.448Z,101498.20
2019-05-02T14:34:42.588Z,101498.21
2019-05-02T14:37:12.626Z,101502.66
2019-05-02T14:39:44.727Z,101498.27
2019-05-02T14:42:21.324Z,101499.34
2019-05-02T14:45:04.174Z,101497.41
2019-05-02T14:47:19.688Z,101493.16
2019-05-02T14:49:52.035Z,101499.94
2019-05-02T14:52:22.125Z,101503.98
2019-05-02T14:54:55.385Z,101497.92
2019-05-02T14:57:27.100Z,101488.91
2019-05-02T14:59:59.364Z,101479.49
2019-05-02T15:02:49.161Z,101478.75
2019-05-02T15:05:19.308Z,101475.32
2019-05-02T15:07:48.772Z,101473.36
2019-05-02T15:10:18.819Z,101482.91
2019-05-02T15:12:51.623Z,101473.05
2019-05-02T15:15:23.001Z,101477.25
2019-05-02T15:17:53.066Z,101478.25
2019-05-02T15:20:35.905Z,101473.55
2019-05-02T15:22:54.990Z,101487.23
2019-05-02T15:25:25.201Z,101466.86
2019-05-02T15:27:58.802Z,101469.54
2019-05-02T15:30:26.961Z,101462.66
2019-05-02T15:33:04.701Z,101457.34
2019-05-02T15:35:52.560Z,101456.81
2019-05-02T15:38:27.665Z,101459.52
2019-05-02T15:40:59.365Z,101457.50
2019-05-02T15:43:26.843Z,101449.81
2019-05-02T15:45:56.899Z,101453.36
2019-05-02T15:48:27.743Z,101458.70
2019-05-02T15:51:00.168Z,101444.51
2019-05-02T15:53:39.140Z,101444.68
2019-05-02T15:56:15.764Z,101446.52
2019-05-02T15:58:42.576Z,101441.81
2019-05-02T16:01:28.625Z,101447.14
2019-05-02T16:03:59.212Z,101443.66
2019-05-02T16:06:31.560Z,101443.81
2019-05-02T16:09:02.459Z,101445.12
2019-05-02T16:11:34.192Z,101441.27
2019-05-02T16:14:04.247Z,101440.58
2019-05-02T16:16:36.555Z,101445.47
2019-05-02T16:19:06.024Z,101441.27
2019-05-02T16:21:42.642Z,101445.94
2019-05-02T16:24:25.225Z,101446.55
2019-05-02T16:26:57.398Z,101449.99
2019-05-02T16:29:29.209Z,101433.36
2019-05-02T16:32:35.908Z,101446.89
2019-05-02T16:35:15.364Z,101441.34
2019-05-02T16:37:42.078Z,101447.86
2019-05-02T16:40:12.311Z,101448.72
2019-05-02T16:42:44.256Z,101445.64
2019-05-02T16:45:14.782Z,101446.68
2019-05-02T16:47:44.957Z,101445.70
2019-05-02T16:50:15.150Z,101450.11
2019-05-02T16:52:47.385Z,101452.15
2019-05-02T16:55:21.141Z,101444.20
2019-05-02T16:57:48.884Z,101440.89
2019-05-02T17:00:22.639Z,101439.55
2019-05-02T17:02:52.897Z,101443.13
2019-05-02T17:05:22.922Z,101444.42
2019-05-02T17:08:18.669Z,101443.23
2019-05-02T17:10:52.352Z,101441.41
2019-05-02T17:13:18.900Z,101447.09
2019-05-02T17:15:48.918Z,101446.80
2019-05-02T17:18:18.972Z,101441.60
2019-05-02T17:20:54.936Z,101444.82
2019-05-02T17:23:22.261Z,101446.15
2019-05-02T17:25:53.345Z,101452.64
2019-05-02T17:28:23.407Z,101449.61
2019-05-02T17:30:53.443Z,101449.16
2019-05-02T17:33:24.466Z,101443.83
2019-05-02T17:35:54.516Z,101444.16
2019-05-02T17:38:29.068Z,101439.97
2019-05-02T17:40:59.205Z,101445.20
2019-05-02T17:43:28.073Z,101440.18
2019-05-02T17:45:58.107Z,101441.52
2019-05-02T17:48:29.422Z,101440.37
2019-05-02T17:51:09.360Z,101443.24
2019-05-02T17:53:42.758Z,101440.59
2019-05-02T17:56:14.567Z,101435.39
2019-05-02T17:58:47.440Z,101433.89
2019-05-02T18:01:19.295Z,101432.56
2019-05-02T18:03:49.320Z,101426.52
2019-05-02T18:06:30.802Z,101431.31
2019-05-02T18:08:55.138Z,101431.25
2019-05-02T18:11:22.996Z,101427.38
2019-05-02T18:13:53.074Z,101430.33
2019-05-02T18:16:23.194Z,101424.98
2019-05-02T18:18:53.261Z,101429.28
2019-05-02T18:21:27.519Z,101433.73
2019-05-02T18:23:57.288Z,101426.87
2019-05-02T18:26:26.878Z,101428.00
2019-05-02T18:29:02.865Z,101423.83
2019-05-02T18:31:29.459Z,101424.49
2019-05-02T18:34:01.637Z,101436.28
2019-05-02T18:36:32.321Z,101436.40
2019-05-02T18:39:05.191Z,101444.02
2019-05-02T18:41:41.705Z,101436.61
2019-05-02T18:44:08.414Z,101433.24
2019-05-02T18:46:41.433Z,101432.69
2019-05-02T18:49:12.220Z,101432.46
2019-05-02T18:51:42.374Z,101427.47
2019-05-02T18:54:12.399Z,101427.45
2019-05-02T18:56:49.379Z,101435.83
2019-05-02T18:59:19.668Z,101433.77
2019-05-02T19:01:47.399Z,101424.60
2019-05-02T19:04:17.680Z,101434.78
2019-05-02T19:06:47.789Z,101429.85
2019-05-02T19:09:24.959Z,101440.52
2019-05-02T19:11:49.601Z,101435.70
2019-05-02T19:14:22.320Z,101437.02
2019-05-02T19:16:52.106Z,101443.83
2019-05-02T19:19:22.627Z,101443.36
2019-05-02T19:21:52.686Z,101440.11
2019-05-02T19:24:22.841Z,101441.77
2019-05-02T19:26:57.253Z,101438.26
2019-05-02T19:29:31.957Z,101439.50
2019-05-02T19:32:02.143Z,101441.78
2019-05-02T19:34:32.487Z,101452.25
2019-05-02T19:37:03.323Z,101452.25
2019-05-02T19:39:34.320Z,101450.56
2019-05-02T19:42:04.585Z,101456.73
2019-05-02T19:44:34.622Z,101447.20
2019-05-02T19:47:08.423Z,101455.38
2019-05-02T19:49:36.391Z,101456.11
2019-05-02T19:52:06.833Z,101468.73
2019-05-02T19:54:40.947Z,101462.81
2019-05-02T19:57:11.693Z,101469.86
2019-05-02T19:59:43.156Z,101468.88
2019-05-02T20:02:13.310Z,101466.35
2019-05-02T20:04:44.351Z,101467.86
2019-05-02T20:07:14.797Z,101474.91
2019-05-02T20:09:47.207Z,101475.26
2019-05-02T20:12:16.664Z,101473.58
2019-05-02T20:14:47.633Z,101479.19
2019-05-02T20:17:20.076Z,101467.19
2019-05-02T20:19:52.938Z,101472.28
2019-05-02T20:22:23.250Z,101477.68
2019-05-02T20:24:59.834Z,101478.03
2019-05-02T20:27:28.166Z,101473.78
2019-05-02T20:29:57.760Z,101487.01
2019-05-02T20:32:27.819Z,101482.56
2019-05-02T20:34:57.836Z,101482.77
2019-05-02T20:37:27.892Z,101481.36
2019-05-02T20:39:58.063Z,101483.12
2019-05-02T20:42:28.105Z,101483.79
2019-05-02T20:44:58.171Z,101483.12
2019-05-02T20:47:28.209Z,101495.05
2019-05-02T20:49:58.255Z,101495.98
2019-05-02T20:52:28.305Z,101495.98
2019-05-02T20:54:58.331Z,101499.52
2019-05-02T20:57:28.460Z,101494.27
2019-05-02T20:59:58.497Z,101488.09
2019-05-02T21:02:28.645Z,101498.89
2019-05-02T21:04:58.726Z,101498.64
2019-05-02T21:07:35.659Z,101487.14
2019-05-02T21:10:41.754Z,101498.15
2019-05-02T21:13:12.664Z,101491.77
2019-05-02T21:15:42.785Z,101481.95
2019-05-02T21:18:12.896Z,101480.75
2019-05-02T21:20:42.949Z,101484.83
2019-05-02T21:23:13.205Z,101482.51
2019-05-02T21:25:43.269Z,101481.57
2019-05-02T21:28:13.321Z,101485.50
2019-05-02T21:30:43.437Z,101493.21
2019-05-02T21:33:32.750Z,101497.56
2019-05-02T21:36:02.836Z,101494.08
2019-05-02T21:38:32.921Z,101488.50
2019-05-02T21:41:02.982Z,101493.12
2019-05-02T21:43:33.054Z,101496.66
2019-05-02T21:46:03.219Z,101492.98
2019-05-02T21:48:33.323Z,101504.20
2019-05-02T21:51:08.802Z,101503.31
2019-05-02T21:53:58.543Z,101502.97
2019-05-02T21:56:42.916Z,101505.69
2019-05-02T21:59:12.878Z,101503.29
2019-05-02T22:01:49.325Z,101506.50
2019-05-02T22:04:19.393Z,101504.41
2019-05-02T22:06:52.210Z,101508.33
2019-05-02T22:09:23.197Z,101514.06
2019-05-02T22:11:53.450Z,101507.77
2019-05-02T22:14:23.511Z,101512.89
2019-05-02T22:16:53.636Z,101508.77
2019-05-02T22:19:23.778Z,101505.69
2019-05-02T22:21:53.810Z,101497.98
2019-05-02T22:24:23.873Z,101502.11
2019-05-02T22:26:53.957Z,101494.70
2019-05-02T22:29:23.975Z,101489.58
2019-05-02T22:31:54.518Z,101489.16
2019-05-02T22:34:25.621Z,101487.27
2019-05-02T22:36:55.677Z,101483.63
2019-05-02T22:39:53.540Z,101492.03
2019-05-02T22:42:23.786Z,101490.42
2019-05-02T22:44:53.818Z,101498.69
2019-05-02T22:47:23.880Z,101497.14
2019-05-02T22:49:53.999Z,101500.16
2019-05-02T22:52:24.066Z,101495.31
2019-05-02T22:54:54.226Z,101491.41
2019-05-02T22:57:24.265Z,101498.82
2019-05-02T22:59:54.329Z,101498.06
2019-05-02T23:02:24.566Z,101497.57
2019-05-02T23:04:54.639Z,101503.17
2019-05-02T23:07:24.660Z,101502.60
2019-05-02T23:09:54.731Z,101507.09
2019-05-02T23:12:25.126Z,101498.17
2019-05-02T23:14:55.126Z,101493.96
2019-05-02T23:17:25.155Z,101493.96
2019-05-02T23:19:55.209Z,101498.00
2019-05-02T23:22:25.238Z,101498.00
2019-05-02T23:25:17.241Z,101496.18
2019-05-02T23:27:53.330Z,101501.95
2019-05-02T23:30:24.687Z,101501.95
2019-05-02T23:32:55.606Z,101502.08
2019-05-02T23:35:25.659Z,101510.42
2019-05-02T23:37:55.742Z,101504.87
2019-05-02T23:40:26.776Z,101506.70
2019-05-02T23:42:56.801Z,101505.53
2019-05-02T23:45:26.859Z,101508.61
2019-05-02T23:47:56.886Z,101504.52
2019-05-02T23:50:26.937Z,101498.09
2019-05-02T23:52:56.959Z,101487.45
2019-05-02T23:55:27.002Z,101490.78
2019-05-02T23:57:57.026Z,101498.55
